首页
METAR-TAF:

METAR-TAF

机场 :

穆尔塔拉·穆罕默德国际机场

拉哥斯, 尼日利亚

纬度: 06-35N, 经度: 003-20E, 海拔: 40米

当前天气观测

该预报发布于55分钟前的01:00 UTC
风速2节,风向多变
温度 28°C
湿度 89%
气压 1012 hPa
能见度10公里或以上
少量云层高于1200英尺

METAR: DNMM 230100Z VRB02KT 9999 FEW012 28/26 Q1012 NOSIG

时间: 02:55 (01:55 UTC)

预报

该预报发布于4小时和5分钟前的21:50 UTC
预报有效从23日的 00点(UTC)到 24日的 06点(UTC)
风速2节,风向多变
能見度: 8000
少量云层高于1100英尺
几率 30% :
短暂存在
从 23日的 05点(UTC)到 23日的 08点(UTC)
能見度: 5000
轻雾
成为
从 23日的 09点(UTC)到 23日的 11点(UTC)
风速10节,风向南转西南
多云层高于1400英尺
少量云层高于2000英尺, 积雨云.

TAF: DNMM 222150Z 2300/2406 VRB02KT 8000 FEW011 PROB30 TEMPO 2305/2308 5000 BR BECMG 2309/2311 21010KT BKN014 FEW020CB

超过4000个机场的气象观测和天气预报(METAR&TAF报告)。

可查询的气象台以黄色和红色小点在地图上表示。

将鼠标移到小点上方,可查看气象台名称。

然后点击查看天气观测和预报。

如需切换地图:点击带黑十字的绿色按钮放大地图;点击带横线的绿色按钮缩小地图;或者点击绿色箭头查看邻近地区的地图。


METAR-TAF: